Albion, Michigan
Current Conditions -  °F | °C
As of 2:13 AM on Sunday 26 Oct 2014 (Local Time) from KRMY Reporting Station
Clear Clear  
Wind Chill:   Ceiling: Unl
Heat Index:   Visibility: 10mi
Dew Point:   Wind: 5mph
Humidity: 55%   Direction: 300°WNW
Pressure: 29.89"   Gusts: NA
Location:  42.25°N, 84.75°W
Report Text: KRMY 260613Z AUTO 30004KT 10SM CLR 09/00 A2989 RMK AO2 T00850000
Loading
Personal Weather Stations






























Interactive Weather Map
Tropical Storm Tracking
New forecast layout! Learn more

10-Day Weather Forecast

Advertisements
Track Severe Weather on mobile